createdAt,value
2023-03-15T00:01:56.545Z,96766.69
2023-03-15T00:05:34.514Z,96790.59
2023-03-15T00:08:53.038Z,96794.15
2023-03-15T04:06:45.058Z,97220.15
2023-03-15T04:09:48.509Z,97224.33
2023-03-15T04:13:25.790Z,97232.10
2023-03-15T04:17:04.877Z,97232.08
2023-03-15T04:20:46.871Z,97237.01
2023-03-15T04:24:39.164Z,97245.39
2023-03-15T04:28:15.932Z,97252.02
2023-03-15T04:31:44.746Z,97252.70
2023-03-15T04:35:22.660Z,97260.80
2023-03-15T04:39:05.398Z,97260.69
2023-03-15T04:42:40.153Z,97257.75
2023-03-15T04:46:16.254Z,97260.52
2023-03-15T04:49:53.605Z,97264.05
2023-03-15T04:53:31.554Z,97264.55
2023-03-15T04:57:09.267Z,97267.80
2023-03-15T05:00:47.145Z,97273.86
2023-03-15T05:04:24.405Z,97280.88
2023-03-15T05:08:02.473Z,97285.66
2023-03-15T05:11:43.853Z,97290.44
2023-03-15T05:15:40.716Z,97295.89
2023-03-15T05:19:01.881Z,97303.61
2023-03-15T05:23:00.611Z,97307.99
2023-03-15T05:26:17.978Z,97305.57
2023-03-15T05:29:56.023Z,97306.82
2023-03-15T05:33:53.810Z,97307.36
2023-03-15T05:37:12.856Z,97313.19
2023-03-15T05:40:50.406Z,97322.30
2023-03-15T05:44:28.178Z,97332.70
2023-03-15T05:48:05.965Z,97336.98
2023-03-15T05:51:44.025Z,97336.51
2023-03-15T05:55:40.145Z,97339.67
2023-03-15T05:59:17.845Z,97342.30
2023-03-15T06:02:45.393Z,97340.02
2023-03-15T06:06:39.536Z,97335.35
2023-03-15T06:09:59.394Z,97341.63
2023-03-15T06:13:36.184Z,97343.20
2023-03-15T06:17:32.604Z,97345.48
2023-03-15T06:20:51.270Z,97354.12
2023-03-15T06:24:47.730Z,97353.04
2023-03-15T06:28:07.188Z,97352.64
2023-03-15T06:31:44.219Z,97379.38
2023-03-15T06:35:22.355Z,97400.31
2023-03-15T06:38:59.781Z,97412.36
2023-03-15T06:42:39.409Z,97427.38
2023-03-15T06:46:15.403Z,97436.45
2023-03-15T06:50:11.648Z,97453.40
2023-03-15T06:53:49.332Z,97455.76
2023-03-15T06:57:08.284Z,97462.96
2023-03-15T07:00:45.730Z,97470.45
2023-03-15T07:04:25.707Z,97466.73
2023-03-15T07:08:22.679Z,97478.35
2023-03-15T07:11:38.914Z,97488.23
2023-03-15T07:15:17.471Z,97495.48
2023-03-15T07:18:56.539Z,97502.39
2023-03-15T07:22:51.211Z,97506.38
2023-03-15T07:26:09.536Z,97505.64
2023-03-15T07:29:48.962Z,97506.16
2023-03-15T07:33:44.014Z,97505.19
2023-03-15T07:37:03.349Z,97507.70
2023-03-15T07:40:40.470Z,97512.18
2023-03-15T07:44:18.716Z,97516.20
2023-03-15T07:47:56.679Z,97516.24
2023-03-15T07:51:52.709Z,97519.42
2023-03-15T07:55:11.259Z,97518.02
2023-03-15T07:59:08.078Z,97526.46
2023-03-15T08:02:26.768Z,97528.66
2023-03-15T08:06:04.142Z,97530.83
2023-03-15T08:10:01.051Z,97532.36
2023-03-15T08:13:19.513Z,97533.14
2023-03-15T08:16:57.119Z,97539.88
2023-03-15T08:20:54.468Z,97550.36
2023-03-15T08:24:12.735Z,97570.71
2023-03-15T08:27:51.760Z,97578.52
2023-03-15T08:31:27.970Z,97578.96
2023-03-15T08:35:24.649Z,97574.77
2023-03-15T08:39:05.327Z,97581.45
2023-03-15T08:42:39.782Z,97592.04
2023-03-15T08:46:17.603Z,97589.08
2023-03-15T08:49:55.140Z,97583.55
2023-03-15T08:53:14.159Z,97595.41
2023-03-15T08:56:51.760Z,97595.41
2023-03-15T09:00:49.201Z,97594.11
2023-03-15T09:04:06.996Z,97600.68
2023-03-15T09:07:45.778Z,97606.17
2023-03-15T09:11:41.180Z,97607.64
2023-03-15T09:15:19.313Z,97609.30
2023-03-15T09:18:37.922Z,97612.73
2023-03-15T09:22:23.900Z,97613.01
2023-03-15T09:25:53.066Z,97612.51
2023-03-15T09:29:30.970Z,97613.70
2023-03-15T09:33:09.107Z,97618.98
2023-03-15T09:36:52.918Z,97612.63
2023-03-15T09:40:26.720Z,97608.26
2023-03-15T09:44:38.385Z,97610.93
2023-03-15T09:47:55.832Z,97606.45
2023-03-15T09:51:43.353Z,97603.05
2023-03-15T09:55:04.879Z,97607.24
2023-03-15T09:58:59.060Z,97609.77
2023-03-15T10:02:31.331Z,97609.77
2023-03-15T10:06:35.751Z,97600.13
2023-03-15T10:09:39.435Z,97605.36
2023-03-15T10:14:01.060Z,97604.27
2023-03-15T10:17:11.853Z,97608.20
2023-03-15T10:20:48.032Z,97613.14
2023-03-15T10:25:01.127Z,97612.52
2023-03-15T10:28:17.097Z,97616.06
2023-03-15T10:31:45.113Z,97624.84
2023-03-15T10:35:19.777Z,97628.11
2023-03-15T10:39:16.221Z,97629.79
2023-03-15T10:42:35.794Z,97634.58
2023-03-15T10:46:21.386Z,97633.21
2023-03-15T10:49:50.803Z,97632.02
2023-03-15T10:53:27.487Z,97640.02
2023-03-15T10:57:28.475Z,97642.72
2023-03-15T11:00:53.421Z,97641.48
2023-03-15T11:04:27.084Z,97640.39
2023-03-15T11:08:20.367Z,97642.27
2023-03-15T11:11:58.802Z,97644.86
2023-03-15T11:15:33.425Z,97648.92
2023-03-15T11:19:14.027Z,97655.52
2023-03-15T11:22:48.038Z,97652.55
2023-03-15T11:26:32.665Z,97655.69
2023-03-15T11:30:03.988Z,97659.55
2023-03-15T11:33:51.445Z,97657.42
2023-03-15T11:37:08.974Z,97658.08
2023-03-15T11:40:53.756Z,97651.33
2023-03-15T11:44:26.152Z,97654.45
2023-03-15T11:48:21.095Z,97656.92
2023-03-15T11:51:36.752Z,97659.55
2023-03-15T11:55:26.705Z,97654.16
2023-03-15T11:59:07.116Z,97659.36
2023-03-15T12:02:53.395Z,97658.55
2023-03-15T12:06:20.497Z,97661.31
2023-03-15T12:09:47.726Z,97668.97
2023-03-15T12:13:28.970Z,97671.77
2023-03-15T12:17:28.547Z,97674.06
2023-03-15T12:21:04.526Z,97679.95
2023-03-15T12:24:23.741Z,97684.36
2023-03-15T12:27:54.131Z,97687.16
2023-03-15T12:31:52.011Z,97687.60
2023-03-15T12:35:16.098Z,97689.27
2023-03-15T12:38:41.875Z,97691.85
2023-03-15T12:42:41.477Z,97694.45
2023-03-15T12:46:40.712Z,97693.96
2023-03-15T12:50:40.599Z,97693.78
2023-03-15T12:53:47.981Z,97696.05
2023-03-15T12:57:37.197Z,97700.37
2023-03-15T13:01:18.039Z,97707.02
2023-03-15T13:04:36.895Z,97704.56
2023-03-15T13:08:22.311Z,97704.62
2023-03-15T13:12:15.353Z,97709.69
2023-03-15T13:15:57.242Z,97721.45
2023-03-15T13:19:25.005Z,97722.48
2023-03-15T13:23:05.520Z,97725.98
2023-03-15T13:26:53.200Z,97727.70
2023-03-15T13:30:36.490Z,97738.60
2023-03-15T13:33:39.759Z,97742.91
2023-03-15T13:37:25.776Z,97748.17
2023-03-15T13:41:20.844Z,97752.86
2023-03-15T13:45:14.912Z,97751.89
2023-03-15T13:48:40.473Z,97747.50
2023-03-15T13:51:55.256Z,97751.90
2023-03-15T13:55:54.000Z,97752.52
2023-03-15T13:59:12.660Z,97757.29
2023-03-15T14:02:55.346Z,97767.30
2023-03-15T14:06:27.030Z,97765.73
2023-03-15T14:10:30.552Z,97771.36
2023-03-15T14:13:51.684Z,97772.54
2023-03-15T14:17:29.081Z,97768.88
2023-03-15T14:21:19.272Z,97771.95
2023-03-15T14:24:53.287Z,97779.30
2023-03-15T14:28:15.987Z,97785.15
2023-03-15T14:31:51.412Z,97779.40
2023-03-15T14:35:42.852Z,97779.16
2023-03-15T14:39:29.181Z,97774.17
2023-03-15T14:42:45.926Z,97770.46
2023-03-15T14:46:21.032Z,97773.60
2023-03-15T14:49:58.148Z,97770.46
2023-03-15T14:53:37.675Z,97779.73
2023-03-15T14:57:32.469Z,97777.89
2023-03-15T15:00:54.217Z,97779.30
2023-03-15T15:04:33.648Z,97775.92
2023-03-15T15:08:15.432Z,97777.00
2023-03-15T15:12:03.494Z,97776.38
2023-03-15T15:15:22.450Z,97777.27
2023-03-15T15:19:18.688Z,97776.68
2023-03-15T15:22:57.526Z,97776.20
2023-03-15T15:26:23.416Z,97778.79
2023-03-15T15:29:52.714Z,97781.77
2023-03-15T15:33:31.576Z,97789.67
2023-03-15T15:37:11.727Z,97795.90
2023-03-15T15:40:45.636Z,97800.84
2023-03-15T15:44:25.950Z,97803.80
2023-03-15T15:48:06.047Z,97803.15
2023-03-15T15:51:42.829Z,97804.80
2023-03-15T15:55:20.055Z,97801.55
2023-03-15T15:58:54.302Z,97804.73
2023-03-15T16:02:31.888Z,97805.80
2023-03-15T16:06:21.185Z,97807.50
2023-03-15T16:09:49.030Z,97815.48
2023-03-15T16:13:24.856Z,97818.20
2023-03-15T16:17:02.732Z,97813.59
2023-03-15T16:20:41.360Z,97815.10
2023-03-15T16:24:40.542Z,97813.71
2023-03-15T16:28:14.645Z,97816.48
2023-03-15T16:31:52.411Z,97817.34
2023-03-15T16:35:15.634Z,97822.63
2023-03-15T16:38:49.472Z,97828.92
2023-03-15T16:42:45.311Z,97832.40
2023-03-15T16:46:23.076Z,97836.02
2023-03-15T16:49:42.013Z,97842.81
2023-03-15T16:53:19.628Z,97844.59
2023-03-15T16:57:21.233Z,97847.09
2023-03-15T17:00:34.973Z,97851.73
2023-03-15T17:04:13.885Z,97858.75
2023-03-15T17:07:53.008Z,97866.90
2023-03-15T17:11:49.084Z,97870.25
2023-03-15T17:15:06.472Z,97871.83
2023-03-15T17:19:03.739Z,97879.36
2023-03-15T17:22:21.547Z,97884.08
2023-03-15T17:26:22.407Z,97890.15
2023-03-15T17:29:36.393Z,97893.88
2023-03-15T17:33:32.983Z,97894.14
2023-03-15T17:36:51.797Z,97898.45
2023-03-15T17:40:32.126Z,97903.18
2023-03-15T17:44:09.907Z,97907.41
2023-03-15T17:47:45.088Z,97911.78
2023-03-15T17:51:41.674Z,97915.30
2023-03-15T17:55:21.849Z,97923.52
2023-03-15T17:58:37.912Z,97925.79
2023-03-15T18:02:16.348Z,97926.05
2023-03-15T18:05:53.510Z,97930.86
2023-03-15T18:09:31.017Z,97933.93
2023-03-15T18:13:28.297Z,97931.01
2023-03-15T18:17:05.246Z,97938.06
2023-03-15T18:20:24.305Z,97934.91
2023-03-15T18:24:20.756Z,97933.80
2023-03-15T18:27:39.385Z,97934.50
2023-03-15T18:31:22.707Z,97936.21
2023-03-15T18:35:35.180Z,97938.57
2023-03-15T18:38:39.103Z,97937.95
2023-03-15T18:42:15.872Z,97936.83
2023-03-15T18:45:53.618Z,97938.27
2023-03-15T18:49:53.135Z,97944.79
2023-03-15T18:53:10.442Z,97947.48
2023-03-15T18:56:46.546Z,97946.71
2023-03-15T19:00:43.806Z,97950.31
2023-03-15T19:04:03.507Z,97954.75
2023-03-15T19:07:58.009Z,97953.13
2023-03-15T19:11:17.228Z,97957.66
2023-03-15T19:15:16.786Z,97959.08
2023-03-15T19:18:33.121Z,97962.34
2023-03-15T19:22:10.599Z,97964.90
2023-03-15T19:25:51.036Z,97970.59
2023-03-15T19:29:26.519Z,97975.48
2023-03-15T19:33:24.995Z,97977.88
2023-03-15T19:36:41.238Z,97979.67
2023-03-15T19:40:20.303Z,97983.70
2023-03-15T19:43:56.218Z,97982.58
2023-03-15T19:47:33.998Z,97981.61
2023-03-15T19:51:11.883Z,97985.85
2023-03-15T19:54:50.076Z,97991.76
2023-03-15T19:58:38.968Z,97995.16
2023-03-15T20:02:23.574Z,97998.26
2023-03-15T20:06:11.763Z,98004.48
2023-03-15T20:09:40.146Z,98010.83
2023-03-15T20:13:16.704Z,98009.39
2023-03-15T20:16:35.412Z,98014.67
2023-03-15T20:20:32.015Z,98024.13
2023-03-15T20:24:10.077Z,98029.99
2023-03-15T20:27:28.442Z,98028.77
2023-03-15T20:31:17.494Z,98036.51
2023-03-15T20:34:43.629Z,98037.18
2023-03-15T20:38:40.530Z,98041.11
2023-03-15T20:41:59.139Z,98043.90
2023-03-15T20:45:59.027Z,98045.41
2023-03-15T20:49:15.645Z,98047.31
2023-03-15T20:52:52.760Z,98048.94
2023-03-15T20:56:29.980Z,98049.87
2023-03-15T21:00:17.106Z,98054.44
2023-03-15T21:04:04.304Z,98054.36
2023-03-15T21:07:22.899Z,98056.35
2023-03-15T21:11:20.070Z,98061.47
2023-03-15T21:14:38.420Z,98065.46
2023-03-15T21:18:17.948Z,98067.86
2023-03-15T21:21:53.611Z,98072.35
2023-03-15T21:25:54.973Z,98074.45
2023-03-15T21:29:09.336Z,98072.80
2023-03-15T21:33:05.697Z,98074.63
2023-03-15T21:36:43.443Z,98076.98
2023-03-15T21:40:20.993Z,98077.87
2023-03-15T21:43:39.950Z,98079.27
2023-03-15T21:47:36.282Z,98082.77
2023-03-15T21:51:14.747Z,98086.86
2023-03-15T21:54:53.263Z,98086.39
2023-03-15T21:58:10.464Z,98094.15
2023-03-15T22:01:49.505Z,98097.88
2023-03-15T22:05:25.883Z,98101.91
2023-03-15T22:09:22.884Z,98107.34
2023-03-15T22:12:42.569Z,98108.60
2023-03-15T22:16:18.855Z,98113.04
2023-03-15T22:20:18.532Z,98112.86
2023-03-15T22:23:53.175Z,98118.09
2023-03-15T22:27:12.360Z,98122.86
2023-03-15T22:31:10.632Z,98127.20
2023-03-15T22:34:27.622Z,98130.84
2023-03-15T22:38:24.691Z,98133.62
2023-03-15T22:42:01.399Z,98141.95
2023-03-15T22:45:21.200Z,98148.60
2023-03-15T22:48:59.117Z,98147.05
2023-03-15T22:52:54.888Z,98148.50
2023-03-15T22:56:32.316Z,98152.74
2023-03-15T22:59:50.956Z,98153.07
2023-03-15T23:03:29.059Z,98147.38
2023-03-15T23:07:06.628Z,98151.20
2023-03-15T23:11:03.978Z,98156.38
2023-03-15T23:14:21.962Z,98159.52
2023-03-15T23:18:18.918Z,98162.86
2023-03-15T23:21:56.012Z,98166.56
2023-03-15T23:25:17.097Z,98169.13
2023-03-15T23:28:53.475Z,98174.75
2023-03-15T23:32:31.231Z,98183.17
2023-03-15T23:36:08.340Z,98185.52
2023-03-15T23:40:13.754Z,98190.00
2023-03-15T23:43:42.256Z,98190.20
2023-03-15T23:47:02.975Z,98197.96
2023-03-15T23:50:38.825Z,98193.85
2023-03-15T23:54:16.115Z,98199.52
2023-03-15T23:58:13.117Z,98203.60
